Time;durP1;ratioP1;P1;durP2;ratioP2;P2;SDS_P1;SDS_P2;PMS_P1;PMS_P2;Temp;Humidity;BMP_temperature;BMP_pressure;BME280_temperature;BME280_humidity;BME280_pressure;Samples;Min_cycle;Max_cycle;Signal;HPM_P1;HPM_P2
2023/09/19 00:02:59;;;;;;;7.63;1.98;;;17.30;80.30;;;;;;9184592;19;20480;-67
2023/09/19 00:06:09;;;;;;;13.38;2.05;;;17.30;80.20;;;;;;9175475;19;20115;-67
2023/09/19 00:09:14;;;;;;;9.15;2.55;;;17.30;80.20;;;;;;9171535;19;20014;-67
2023/09/19 00:12:27;;;;;;;9.95;1.98;;;17.30;80.30;;;;;;9172984;19;20077;-68
2023/09/19 00:15:42;;;;;;;9.52;2.63;;;17.20;80.10;;;;;;9167940;19;20053;-68
2023/09/19 00:18:50;;;;;;;10.02;2.55;;;17.20;80.30;;;;;;9170003;19;20094;-68
2023/09/19 00:21:56;;;;;;;14.07;2.65;;;17.20;80.20;;;;;;9171817;19;20019;-67
2023/09/19 00:25:03;;;;;;;7.60;1.60;;;17.20;80.20;;;;;;9170277;19;20018;-70
2023/09/19 00:28:09;;;;;;;9.00;2.40;;;17.20;80.20;;;;;;9169474;19;20022;-68
2023/09/19 00:31:19;;;;;;;6.05;1.55;;;17.20;80.20;;;;;;9170853;19;20022;-67
2023/09/19 00:34:25;;;;;;;5.30;1.60;;;17.10;80.20;;;;;;9168506;19;20014;-66
2023/09/19 00:37:33;;;;;;;7.10;2.15;;;17.10;80.10;;;;;;9168702;19;20453;-67
2023/09/19 00:40:38;;;;;;;9.48;1.90;;;17.00;80.00;;;;;;9170600;19;20018;-67
2023/09/19 00:43:46;;;;;;;12.70;2.30;;;17.00;80.00;;;;;;9170442;19;20015;-67
2023/09/19 00:46:55;;;;;;;7.05;1.98;;;17.00;80.00;;;;;;9166010;19;20086;-66
2023/09/19 00:50:07;;;;;;;11.13;1.90;;;16.90;79.90;;;;;;9169102;19;20011;-66
2023/09/19 00:53:18;;;;;;;12.00;1.58;;;16.90;80.00;;;;;;9167910;19;20011;-68
2023/09/19 00:56:25;;;;;;;5.80;1.80;;;16.80;80.60;;;;;;9168310;19;20014;-68
2023/09/19 00:59:31;;;;;;;11.50;1.90;;;16.80;80.00;;;;;;9166196;19;20015;-68
2023/09/19 01:02:42;;;;;;;10.63;1.70;;;16.80;80.10;;;;;;9170746;19;20018;-68
2023/09/19 01:05:48;;;;;;;9.90;2.05;;;16.70;80.20;;;;;;9166882;19;20198;-68
2023/09/19 01:08:55;;;;;;;6.95;1.70;;;16.70;80.20;;;;;;9168627;19;20011;-66
2023/09/19 01:12:05;;;;;;;6.80;1.77;;;16.70;80.10;;;;;;9167734;19;20015;-66
2023/09/19 01:15:24;;;;;;;13.82;1.95;;;16.70;80.20;;;;;;9161457;19;20034;-67
2023/09/19 01:18:43;;;;;;;7.60;1.63;;;16.70;80.30;;;;;;9167649;19;20040;-67
2023/09/19 01:21:57;;;;;;;10.65;1.83;;;16.60;80.20;;;;;;9167437;19;20019;-67
2023/09/19 01:25:36;;;;;;;5.88;1.90;;;16.60;80.20;;;;;;9167988;19;20467;-67
2023/09/19 01:28:58;;;;;;;10.60;1.75;;;16.60;80.40;;;;;;9168457;19;20019;-68
2023/09/19 01:32:13;;;;;;;8.25;1.80;;;16.50;80.60;;;;;;9176048;19;20017;-70
2023/09/19 01:35:21;;;;;;;11.55;1.70;;;16.60;80.50;;;;;;9172811;19;20029;-67
2023/09/19 01:38:27;;;;;;;11.68;2.00;;;16.50;80.30;;;;;;9169608;19;20316;-68
2023/09/19 01:41:49;;;;;;;4.60;1.70;;;16.50;80.20;;;;;;9166596;19;20027;-67
2023/09/19 01:45:02;;;;;;;9.85;2.00;;;16.40;80.30;;;;;;9167151;19;20014;-67
2023/09/19 01:48:27;;;;;;;6.78;2.00;;;16.40;80.20;;;;;;9165942;19;20026;-67
2023/09/19 01:51:37;;;;;;;9.73;2.03;;;16.40;80.20;;;;;;9167607;19;20015;-67
2023/09/19 01:54:50;;;;;;;12.70;3.35;;;16.40;80.20;;;;;;9164445;19;20143;-67
2023/09/19 01:58:05;;;;;;;5.13;1.48;;;16.30;80.30;;;;;;9168196;19;20045;-67
2023/09/19 02:01:16;;;;;;;8.00;2.53;;;16.40;80.30;;;;;;9165736;19;20022;-69
2023/09/19 02:04:25;;;;;;;23.25;2.38;;;16.30;80.30;;;;;;9165966;19;20120;-67
2023/09/19 02:07:32;;;;;;;11.43;2.13;;;16.30;80.50;;;;;;9166759;19;20116;-69
2023/09/19 02:10:38;;;;;;;9.43;2.15;;;16.30;80.40;;;;;;9167043;19;20392;-72
2023/09/19 02:13:46;;;;;;;11.70;2.22;;;16.30;80.40;;;;;;9164170;19;20361;-68
2023/09/19 02:16:52;;;;;;;10.18;2.40;;;16.30;80.50;;;;;;9160419;19;20022;-74
2023/09/19 02:20:03;;;;;;;7.18;2.20;;;16.20;81.00;;;;;;9163921;19;20057;-71
2023/09/19 02:23:10;;;;;;;12.32;2.25;;;16.20;80.50;;;;;;9164685;19;20025;-66
2023/09/19 02:26:18;;;;;;;9.40;2.15;;;16.20;80.50;;;;;;9166143;19;20022;-70
2023/09/19 02:29:26;;;;;;;14.32;2.35;;;16.30;80.70;;;;;;9164743;19;20014;-70
2023/09/19 02:32:36;;;;;;;9.57;2.25;;;16.10;80.70;;;;;;9165382;19;20018;-70
2023/09/19 02:35:44;;;;;;;7.95;2.33;;;16.10;80.40;;;;;;9164113;19;20364;-68
2023/09/19 02:38:52;;;;;;;5.13;1.80;;;16.20;80.70;;;;;;9161726;19;20018;-70
2023/09/19 02:41:57;;;;;;;19.60;2.97;;;16.10;80.70;;;;;;9164877;19;20015;-72
2023/09/19 02:45:05;;;;;;;8.80;2.90;;;16.10;80.60;;;;;;9163652;19;20352;-71
2023/09/19 02:48:11;;;;;;;11.75;2.20;;;16.10;80.70;;;;;;9163047;19;20019;-72
2023/09/19 02:51:21;;;;;;;13.13;2.08;;;16.10;80.90;;;;;;9162080;19;20031;-70
2023/09/19 02:54:28;;;;;;;5.57;2.15;;;16.10;80.80;;;;;;9162269;19;20822;-71
2023/09/19 02:57:40;;;;;;;11.82;2.38;;;16.10;80.80;;;;;;9162652;19;20018;-68
2023/09/19 03:00:47;;;;;;;10.23;2.13;;;16.10;81.00;;;;;;9158894;19;20021;-69
2023/09/19 03:03:55;;;;;;;13.80;2.70;;;16.10;81.00;;;;;;9162785;19;20026;-70
2023/09/19 03:07:04;;;;;;;13.40;3.30;;;16.00;80.90;;;;;;9161362;19;20130;-68
2023/09/19 03:10:12;;;;;;;17.73;3.58;;;16.00;80.90;;;;;;9168922;19;20018;-73
2023/09/19 03:13:17;;;;;;;8.23;2.03;;;16.00;81.00;;;;;;9169180;19;20011;-69
2023/09/19 03:16:25;;;;;;;10.20;2.53;;;16.00;81.10;;;;;;9158495;19;20018;-66
2023/09/19 03:19:44;;;;;;;13.43;3.20;;;16.00;81.10;;;;;;9164293;19;20015;-69
2023/09/19 03:22:55;;;;;;;12.68;2.83;;;16.10;84.40;;;;;;9163111;19;20015;-70
2023/09/19 03:26:01;;;;;;;14.25;2.58;;;16.00;81.30;;;;;;9162092;19;20122;-69
2023/09/19 03:29:09;;;;;;;10.80;3.35;;;16.00;81.60;;;;;;9161345;19;20022;-70
2023/09/19 03:32:16;;;;;;;8.43;2.25;;;15.90;81.80;;;;;;9163444;19;20480;-71
2023/09/19 03:35:23;;;;;;;19.25;3.30;;;16.00;81.80;;;;;;9159660;19;20025;-69
2023/09/19 03:38:32;;;;;;;12.15;2.42;;;16.00;81.50;;;;;;9163537;19;20010;-70
2023/09/19 03:41:39;;;;;;;9.77;2.05;;;15.90;81.20;;;;;;9163407;19;20014;-71
2023/09/19 03:44:44;;;;;;;15.70;2.75;;;15.90;81.00;;;;;;9161206;19;20025;-71
2023/09/19 03:47:52;;;;;;;10.50;2.90;;;15.90;81.00;;;;;;9160676;19;20023;-72
2023/09/19 03:51:00;;;;;;;13.00;2.75;;;15.90;81.00;;;;;;9160668;19;20060;-72
2023/09/19 03:54:10;;;;;;;16.13;3.40;;;15.80;81.00;;;;;;9160113;19;20031;-69
2023/09/19 03:57:20;;;;;;;15.25;2.65;;;15.80;81.10;;;;;;9163394;19;20045;-68
2023/09/19 04:00:29;;;;;;;15.40;2.45;;;15.80;81.10;;;;;;9159174;19;20022;-70
2023/09/19 04:03:46;;;;;;;16.67;2.90;;;15.80;81.40;;;;;;9163522;19;20030;-66
2023/09/19 04:06:54;;;;;;;11.20;2.28;;;15.80;81.70;;;;;;9171987;19;20018;-71
2023/09/19 04:10:02;;;;;;;15.65;2.75;;;15.80;81.40;;;;;;9169519;19;20516;-69
2023/09/19 04:13:11;;;;;;;19.00;2.30;;;15.80;82.20;;;;;;9169742;19;20018;-70
2023/09/19 04:16:17;;;;;;;12.82;2.35;;;15.80;82.60;;;;;;9163869;19;20483;-71
2023/09/19 04:19:25;;;;;;;15.98;3.00;;;15.80;83.80;;;;;;9172605;19;20905;-70
2023/09/19 04:22:31;;;;;;;12.80;2.33;;;15.80;85.90;;;;;;9168905;19;20048;-67
2023/09/19 04:25:43;;;;;;;12.30;2.60;;;16.00;85.90;;;;;;9173191;19;20364;-70
2023/09/19 04:28:49;;;;;;;15.95;2.83;;;15.70;81.00;;;;;;9169052;19;20018;-71
2023/09/19 04:31:57;;;;;;;13.68;2.83;;;15.60;80.80;;;;;;9164908;19;20491;-69
2023/09/19 04:35:05;;;;;;;16.60;3.08;;;15.70;83.20;;;;;;9169324;19;20019;-69
2023/09/19 04:38:14;;;;;;;8.88;2.03;;;15.60;80.90;;;;;;9170427;19;20034;-69
2023/09/19 04:41:23;;;;;;;15.68;2.65;;;15.60;85.60;;;;;;9169995;19;20697;-69
2023/09/19 04:44:30;;;;;;;14.70;2.25;;;15.50;80.90;;;;;;9169522;19;20010;-70
2023/09/19 04:47:36;;;;;;;18.40;3.05;;;15.50;83.30;;;;;;9170326;19;20014;-71
2023/09/19 04:50:43;;;;;;;12.27;2.53;;;15.60;87.60;;;;;;9169367;19;20677;-71
2023/09/19 04:53:49;;;;;;;16.42;2.75;;;15.40;80.60;;;;;;9167674;19;20361;-70
2023/09/19 04:57:01;;;;;;;16.10;3.40;;;15.40;80.60;;;;;;9168213;19;20018;-70
2023/09/19 05:00:12;;;;;;;11.77;3.80;;;15.50;82.60;;;;;;9165292;19;20635;-67
2023/09/19 05:03:22;;;;;;;18.38;1.90;;;15.30;80.90;;;;;;9169312;19;20011;-71
2023/09/19 05:06:28;;;;;;;16.85;3.78;;;15.40;83.30;;;;;;9169822;19;20010;-71
2023/09/19 05:09:37;;;;;;;17.73;2.70;;;15.30;80.60;;;;;;9169803;19;20136;-71
2023/09/19 05:12:47;;;;;;;15.68;2.47;;;15.20;80.50;;;;;;9167277;19;20018;-69
2023/09/19 05:15:54;;;;;;;17.40;3.10;;;15.20;80.50;;;;;;9158588;19;20018;-72
2023/09/19 05:19:01;;;;;;;7.70;2.80;;;15.20;80.50;;;;;;9169199;19;20044;-69
2023/09/19 05:22:09;;;;;;;14.88;2.45;;;15.20;80.50;;;;;;9169299;19;20370;-72
2023/09/19 05:25:16;;;;;;;12.32;2.92;;;15.20;80.50;;;;;;9166484;19;20019;-68
2023/09/19 05:28:26;;;;;;;12.95;2.35;;;15.10;80.60;;;;;;9166655;19;20018;-69
2023/09/19 05:31:32;;;;;;;13.43;3.15;;;15.10;80.50;;;;;;9170022;19;20733;-70
2023/09/19 05:34:41;;;;;;;12.77;2.75;;;15.10;80.40;;;;;;9167818;19;20491;-70
2023/09/19 05:37:46;;;;;;;16.42;2.85;;;15.00;80.30;;;;;;9163923;19;20025;-72
2023/09/19 05:40:54;;;;;;;18.55;2.42;;;15.10;80.40;;;;;;9166278;19;20853;-67
2023/09/19 05:44:02;;;;;;;12.35;2.40;;;15.00;80.30;;;;;;9167455;19;20373;-70
2023/09/19 05:47:10;;;;;;;16.40;2.20;;;15.00;80.30;;;;;;9167856;19;20372;-69
2023/09/19 05:50:16;;;;;;;19.30;3.90;;;15.00;80.30;;;;;;9168548;19;20011;-68
2023/09/19 05:53:24;;;;;;;20.60;2.80;;;14.90;80.20;;;;;;9165674;19;20023;-67
2023/09/19 05:56:29;;;;;;;10.13;2.20;;;15.00;80.30;;;;;;9164211;19;20045;-69
2023/09/19 05:59:39;;;;;;;18.55;3.05;;;14.90;80.30;;;;;;9163448;19;20034;-66
2023/09/19 06:02:45;;;;;;;16.23;2.60;;;14.90;80.20;;;;;;9164121;19;20420;-70
2023/09/19 06:05:57;;;;;;;21.25;2.50;;;14.90;80.20;;;;;;9163427;19;20376;-69
2023/09/19 06:09:03;;;;;;;15.38;2.70;;;14.90;80.30;;;;;;9165349;19;20014;-70
2023/09/19 06:12:12;;;;;;;11.73;2.08;;;14.90;80.30;;;;;;9167903;19;20022;-69
2023/09/19 06:15:23;;;;;;;9.68;2.83;;;14.90;80.30;;;;;;9162716;19;20056;-66
2023/09/19 06:18:33;;;;;;;9.68;3.17;;;14.90;80.30;;;;;;9161784;19;20011;-67
2023/09/19 06:21:38;;;;;;;17.45;3.08;;;15.00;80.30;;;;;;9164274;19;20480;-67
2023/09/19 06:24:46;;;;;;;12.63;2.38;;;15.10;80.30;;;;;;9159792;19;20019;-67
2023/09/19 06:27:54;;;;;;;15.95;2.70;;;15.00;80.20;;;;;;9163053;19;20026;-67
2023/09/19 06:31:09;;;;;;;14.82;2.30;;;15.10;80.20;;;;;;9164609;19;20015;-71
2023/09/19 06:34:15;;;;;;;11.50;2.30;;;15.10;80.10;;;;;;9161562;19;20082;-67
2023/09/19 06:37:22;;;;;;;14.70;2.45;;;15.20;80.10;;;;;;9161316;19;20013;-69
2023/09/19 06:40:28;;;;;;;11.05;2.08;;;15.10;80.00;;;;;;9165963;19;20022;-69
2023/09/19 06:43:36;;;;;;;12.88;2.10;;;15.20;80.00;;;;;;9166346;19;20026;-69
2023/09/19 06:46:46;;;;;;;10.85;1.70;;;15.20;79.90;;;;;;9167042;19;20039;-69
2023/09/19 06:49:54;;;;;;;9.05;2.58;;;15.20;80.00;;;;;;9164605;19;20022;-67
2023/09/19 06:53:00;;;;;;;12.07;2.75;;;15.20;80.00;;;;;;9164659;19;20719;-67
2023/09/19 06:56:08;;;;;;;9.18;2.08;;;15.20;79.90;;;;;;9164028;19;20010;-67
2023/09/19 06:59:14;;;;;;;7.28;2.40;;;15.30;80.00;;;;;;9164013;19;20117;-68
2023/09/19 07:02:24;;;;;;;32.05;4.18;;;15.30;80.00;;;;;;9165524;19;20022;-68
2023/09/19 07:05:31;;;;;;;19.35;2.58;;;15.30;80.00;;;;;;9163314;19;20033;-67
2023/09/19 07:08:38;;;;;;;14.35;2.83;;;15.30;80.00;;;;;;9166251;19;20029;-67
2023/09/19 07:11:44;;;;;;;13.25;1.92;;;15.40;80.00;;;;;;9163269;19;20045;-69
2023/09/19 07:14:52;;;;;;;12.45;2.20;;;15.40;79.90;;;;;;9160403;19;20335;-67
2023/09/19 07:18:00;;;;;;;16.58;2.28;;;15.50;80.00;;;;;;9161716;19;20017;-68
2023/09/19 07:21:08;;;;;;;18.45;3.03;;;15.50;80.00;;;;;;9164519;19;20011;-67
2023/09/19 07:24:13;;;;;;;15.98;2.63;;;15.60;79.90;;;;;;9163244;19;20026;-67
2023/09/19 07:27:21;;;;;;;20.15;2.83;;;15.60;79.90;;;;;;9165389;19;20023;-67
2023/09/19 07:30:26;;;;;;;15.00;2.90;;;15.60;79.90;;;;;;9165252;19;20011;-69
2023/09/19 07:33:36;;;;;;;12.40;2.40;;;15.70;79.90;;;;;;9165203;19;20019;-67
2023/09/19 07:36:43;;;;;;;16.13;2.78;;;15.70;79.90;;;;;;9158799;19;20018;-67
2023/09/19 07:39:51;;;;;;;6.50;1.67;;;15.80;79.80;;;;;;9169796;19;20010;-68
2023/09/19 07:42:56;;;;;;;21.92;2.83;;;15.90;79.90;;;;;;9182535;19;20099;-69
2023/09/19 07:46:06;;;;;;;10.63;3.17;;;15.90;79.70;;;;;;9184154;19;20017;-68
2023/09/19 07:49:15;;;;;;;15.85;2.75;;;16.00;79.80;;;;;;9189592;19;20018;-71
2023/09/19 07:52:22;;;;;;;11.32;2.47;;;16.00;79.70;;;;;;9178562;19;20011;-68
2023/09/19 07:55:28;;;;;;;13.98;2.42;;;16.10;79.70;;;;;;9173911;19;20026;-67
2023/09/19 07:58:38;;;;;;;21.25;2.92;;;16.10;79.60;;;;;;9168303;19;20657;-69
2023/09/19 08:01:44;;;;;;;16.42;2.72;;;16.20;79.60;;;;;;9172400;19;20028;-67
2023/09/19 08:04:55;;;;;;;12.48;2.47;;;16.20;79.60;;;;;;9172215;19;20110;-67
2023/09/19 08:08:01;;;;;;;18.50;3.10;;;16.30;79.60;;;;;;9167479;19;20018;-67
2023/09/19 08:11:12;;;;;;;14.10;3.20;;;16.30;79.70;;;;;;9172550;19;20126;-72
2023/09/19 08:14:17;;;;;;;12.65;2.47;;;16.40;79.60;;;;;;9171188;19;20018;-68
2023/09/19 08:17:25;;;;;;;11.95;2.42;;;16.40;79.50;;;;;;9166258;19;20026;-70
2023/09/19 08:20:35;;;;;;;10.95;2.40;;;16.50;79.40;;;;;;9171271;19;20432;-69
2023/09/19 08:23:43;;;;;;;17.33;3.13;;;16.60;79.40;;;;;;9170246;19;20014;-70
2023/09/19 08:26:48;;;;;;;13.85;2.70;;;16.70;79.40;;;;;;9170166;19;20034;-68
2023/09/19 08:29:56;;;;;;;12.82;2.60;;;16.70;79.30;;;;;;9167583;19;20010;-69
2023/09/19 08:33:03;;;;;;;14.60;2.50;;;16.80;79.20;;;;;;9171329;19;20018;-69
2023/09/19 08:36:14;;;;;;;8.90;2.10;;;16.90;79.20;;;;;;9168103;19;20014;-69
2023/09/19 08:39:19;;;;;;;12.98;2.33;;;16.90;79.10;;;;;;9166331;19;20026;-69
2023/09/19 08:42:27;;;;;;;11.68;2.55;;;17.00;79.10;;;;;;9169652;19;20014;-68
2023/09/19 08:45:33;;;;;;;11.05;2.55;;;17.10;79.10;;;;;;9169246;19;20014;-69
2023/09/19 08:48:48;;;;;;;16.15;2.92;;;17.20;79.10;;;;;;9165876;19;20014;-70
2023/09/19 08:52:04;;;;;;;15.40;2.88;;;17.30;79.10;;;;;;9164558;19;20095;-70
2023/09/19 08:55:20;;;;;;;14.05;2.75;;;17.50;79.10;;;;;;9166411;19;20018;-70
2023/09/19 08:58:30;;;;;;;15.43;2.20;;;17.60;79.10;;;;;;9166592;19;20502;-69
2023/09/19 09:01:39;;;;;;;15.52;2.88;;;17.80;79.10;;;;;;9166626;19;20010;-67
2023/09/19 09:04:46;;;;;;;17.17;2.85;;;18.00;79.10;;;;;;9165924;19;20025;-68
2023/09/19 09:07:58;;;;;;;13.13;2.78;;;18.10;78.90;;;;;;9170189;19;20021;-69
2023/09/19 09:11:03;;;;;;;15.88;2.80;;;18.30;78.70;;;;;;9167923;19;20022;-71
2023/09/19 09:14:11;;;;;;;11.70;3.03;;;18.40;78.40;;;;;;9164384;19;20022;-70
2023/09/19 09:17:17;;;;;;;21.23;3.10;;;18.60;78.30;;;;;;9159406;19;20471;-69
2023/09/19 09:20:25;;;;;;;15.52;2.65;;;18.70;78.20;;;;;;9164985;19;20018;-68
2023/09/19 09:23:34;;;;;;;14.57;2.58;;;18.90;78.10;;;;;;9160498;19;20068;-69
2023/09/19 09:26:47;;;;;;;18.95;2.28;;;19.00;77.80;;;;;;9162633;19;20019;-69
2023/09/19 09:29:54;;;;;;;13.35;2.80;;;19.10;77.60;;;;;;9165326;19;20066;-69
2023/09/19 09:33:12;;;;;;;20.17;2.95;;;19.20;77.40;;;;;;9166270;19;20015;-67
2023/09/19 09:36:18;;;;;;;9.55;2.28;;;19.40;77.20;;;;;;9162353;19;20025;-68
2023/09/19 09:39:37;;;;;;;12.23;2.53;;;19.50;77.20;;;;;;9164357;19;20099;-71
2023/09/19 09:42:46;;;;;;;10.60;2.55;;;19.50;76.60;;;;;;9168526;19;20022;-70
2023/09/19 09:46:50;;;;;;;10.43;2.55;;;19.60;76.60;;;;;;9165021;19;20487;-68
2023/09/19 09:49:34;;;;;;;17.63;3.22;;;19.60;76.50;;;;;;9164029;19;20014;-67
2023/09/19 09:52:48;;;;;;;21.08;3.35;;;19.70;76.40;;;;;;9162267;19;20717;-69
2023/09/19 09:56:11;;;;;;;18.75;3.05;;;19.80;76.60;;;;;;9166704;19;20029;-67
2023/09/19 09:59:23;;;;;;;20.55;2.65;;;19.80;76.00;;;;;;9164069;19;20018;-68
2023/09/19 10:02:36;;;;;;;14.00;2.38;;;19.90;76.10;;;;;;9166311;19;20385;-68
2023/09/19 10:05:47;;;;;;;11.35;2.30;;;19.90;76.00;;;;;;9163945;19;20018;-69
2023/09/19 10:09:10;;;;;;;18.80;3.85;;;20.00;75.80;;;;;;9160243;19;20109;-67
2023/09/19 10:12:25;;;;;;;8.20;2.00;;;20.10;75.60;;;;;;9166561;19;20021;-70
2023/09/19 10:15:36;;;;;;;10.75;2.05;;;20.10;75.50;;;;;;9160990;19;20018;-69
2023/09/19 10:18:46;;;;;;;15.60;2.47;;;20.30;79.10;;;;;;9166362;19;20484;-69
2023/09/19 10:21:53;;;;;;;12.00;2.45;;;20.30;75.20;;;;;;9166040;19;20073;-66
2023/09/19 10:25:03;;;;;;;11.50;2.38;;;20.30;74.90;;;;;;9165296;19;20019;-67
2023/09/19 10:28:13;;;;;;;18.65;2.78;;;20.50;75.00;;;;;;9163673;19;20399;-67
2023/09/19 10:31:24;;;;;;;13.82;2.78;;;20.60;74.80;;;;;;9166377;19;20015;-68
2023/09/19 10:34:30;;;;;;;12.00;2.67;;;20.60;74.60;;;;;;9163156;19;20094;-68
2023/09/19 10:37:40;;;;;;;15.95;2.65;;;20.70;74.40;;;;;;9164124;19;20034;-68
2023/09/19 10:40:47;;;;;;;18.05;2.45;;;20.80;74.30;;;;;;9160970;19;20024;-69
2023/09/19 10:43:59;;;;;;;10.23;2.40;;;20.90;74.00;;;;;;9164906;19;20022;-69
2023/09/19 10:47:07;;;;;;;13.57;2.42;;;20.90;73.80;;;;;;9163400;19;20027;-68
2023/09/19 10:50:22;;;;;;;17.77;2.92;;;21.00;73.70;;;;;;9164098;19;20499;-69
2023/09/19 10:53:31;;;;;;;16.15;2.40;;;21.00;73.30;;;;;;9164748;19;20010;-69
2023/09/19 10:56:41;;;;;;;11.27;2.78;;;21.00;73.30;;;;;;9166137;19;20051;-69
2023/09/19 11:00:21;;;;;;;10.60;2.95;;;21.00;73.00;;;;;;9161650;19;20029;-68
2023/09/19 11:03:33;;;;;;;10.60;2.63;;;21.00;73.00;;;;;;9163766;19;20348;-70
2023/09/19 11:06:38;;;;;;;15.90;2.33;;;20.90;72.50;;;;;;9163880;19;20259;-71
2023/09/19 11:09:48;;;;;;;12.68;2.35;;;20.90;72.60;;;;;;9164294;19;20011;-68
2023/09/19 11:12:55;;;;;;;15.10;2.47;;;20.90;72.60;;;;;;9162892;19;20824;-68
2023/09/19 11:16:08;;;;;;;11.93;2.10;;;21.00;72.60;;;;;;9160510;19;20023;-70
2023/09/19 11:19:14;;;;;;;8.68;1.60;;;21.10;72.40;;;;;;9162591;19;20024;-70
2023/09/19 11:22:22;;;;;;;7.97;2.13;;;21.20;72.40;;;;;;9163206;19;20472;-69
2023/09/19 11:25:47;;;;;;;16.83;2.90;;;21.20;72.10;;;;;;9165419;19;20018;-70
2023/09/19 11:29:28;;;;;;;18.20;2.65;;;21.30;71.80;;;;;;9163162;19;20034;-70
2023/09/19 11:33:03;;;;;;;13.55;2.85;;;21.30;71.70;;;;;;9162909;19;20541;-69
2023/09/19 11:36:19;;;;;;;8.90;1.80;;;21.30;71.50;;;;;;9163023;19;20014;-69
2023/09/19 11:39:29;;;;;;;13.05;2.65;;;21.30;71.50;;;;;;9163885;19;20015;-68
2023/09/19 11:42:49;;;;;;;17.83;2.47;;;21.30;71.50;;;;;;9162806;19;20373;-68
2023/09/19 11:46:05;;;;;;;14.88;2.20;;;21.30;71.30;;;;;;9162436;19;20343;-66
2023/09/19 11:49:15;;;;;;;13.90;3.08;;;21.20;71.10;;;;;;9163585;19;20007;-66
2023/09/19 11:52:34;;;;;;;10.65;2.35;;;21.20;71.20;;;;;;9165159;19;20037;-68
2023/09/19 11:55:43;;;;;;;13.07;2.22;;;21.20;70.80;;;;;;9162166;19;20014;-68
2023/09/19 11:58:53;;;;;;;5.97;1.88;;;21.10;70.90;;;;;;9161553;19;20025;-68
2023/09/19 12:02:08;;;;;;;11.00;1.90;;;21.00;71.00;;;;;;9160160;19;20117;-68
2023/09/19 12:05:15;;;;;;;10.07;1.88;;;21.00;71.30;;;;;;9163583;19;20045;-67
2023/09/19 12:08:27;;;;;;;18.10;2.05;;;21.00;70.90;;;;;;9162106;19;20024;-67
2023/09/19 12:11:35;;;;;;;13.75;2.65;;;20.90;70.80;;;;;;9161723;19;20133;-68
2023/09/19 12:14:43;;;;;;;12.50;1.98;;;20.90;70.90;;;;;;9158953;19;20015;-67
2023/09/19 12:17:50;;;;;;;9.77;2.00;;;20.90;71.00;;;;;;9161089;19;20025;-68
2023/09/19 12:20:58;;;;;;;12.73;2.13;;;20.80;70.70;;;;;;9160125;19;20022;-68
2023/09/19 12:24:18;;;;;;;10.80;2.28;;;20.80;70.80;;;;;;9159621;19;20516;-66
2023/09/19 12:27:26;;;;;;;7.15;1.90;;;20.80;70.50;;;;;;9171267;19;20015;-67
2023/09/19 12:30:36;;;;;;;11.48;2.28;;;20.70;70.60;;;;;;9168908;19;20019;-66
2023/09/19 12:33:44;;;;;;;7.00;1.65;;;20.70;70.80;;;;;;9169474;19;20022;-68
2023/09/19 12:36:50;;;;;;;7.50;2.10;;;20.70;70.80;;;;;;9167435;19;20110;-68
2023/09/19 12:40:17;;;;;;;13.00;2.35;;;20.70;71.00;;;;;;9168994;19;20018;-68
2023/09/19 12:43:23;;;;;;;9.75;1.90;;;20.90;73.80;;;;;;9167424;19;20115;-68
2023/09/19 12:46:32;;;;;;;10.52;2.10;;;20.70;70.70;;;;;;9169336;19;20018;-68
2023/09/19 12:49:37;;;;;;;14.88;2.08;;;20.80;70.60;;;;;;9166754;19;20352;-68
2023/09/19 12:52:47;;;;;;;11.60;1.65;;;20.80;70.50;;;;;;9167199;19;20014;-67
2023/09/19 12:56:01;;;;;;;6.55;1.60;;;20.90;70.50;;;;;;9167787;19;20038;-65
2023/09/19 12:59:11;;;;;;;7.43;2.00;;;20.90;70.30;;;;;;9168219;19;20018;-67
2023/09/19 13:02:20;;;;;;;9.27;2.00;;;21.00;70.30;;;;;;9164034;19;20061;-67
2023/09/19 13:05:53;;;;;;;12.40;2.10;;;21.00;70.20;;;;;;9166362;19;20011;-69
2023/09/19 13:09:11;;;;;;;8.05;1.80;;;21.00;69.70;;;;;;9168131;19;20029;-67
2023/09/19 13:12:42;;;;;;;11.82;1.70;;;21.00;69.80;;;;;;9169864;19;20037;-67
2023/09/19 13:15:57;;;;;;;8.60;1.73;;;21.00;69.90;;;;;;9181472;19;20018;-66
2023/09/19 13:19:05;;;;;;;7.97;2.05;;;21.00;70.00;;;;;;9178118;19;20010;-69
2023/09/19 13:22:42;;;;;;;11.98;1.92;;;21.00;70.10;;;;;;9177352;19;20011;-65
2023/09/19 13:25:50;;;;;;;11.43;2.10;;;21.00;69.70;;;;;;9169668;19;20014;-69
2023/09/19 13:29:00;;;;;;;8.52;2.63;;;21.00;69.80;;;;;;9167387;19;20029;-68
2023/09/19 13:32:11;;;;;;;9.95;1.70;;;21.00;69.80;;;;;;9169027;19;20406;-67
2023/09/19 13:35:23;;;;;;;7.57;2.00;;;20.90;69.70;;;;;;9165521;19;20018;-68
2023/09/19 13:38:34;;;;;;;7.05;2.22;;;20.90;69.70;;;;;;9167092;19;20018;-68
2023/09/19 13:41:43;;;;;;;9.38;1.75;;;20.90;69.70;;;;;;9164729;19;20120;-67
2023/09/19 13:44:55;;;;;;;10.88;1.95;;;20.80;70.30;;;;;;9167809;19;20052;-66
2023/09/19 13:48:00;;;;;;;7.93;2.20;;;20.80;69.70;;;;;;9166096;19;20026;-70
2023/09/19 13:51:08;;;;;;;9.25;1.83;;;20.80;70.40;;;;;;9167555;19;20014;-67
2023/09/19 13:54:14;;;;;;;9.00;1.77;;;20.70;69.60;;;;;;9161880;19;20057;-68
2023/09/19 13:57:21;;;;;;;12.32;1.70;;;20.70;69.50;;;;;;9164791;19;20015;-67
2023/09/19 14:00:29;;;;;;;3.50;1.23;;;20.60;69.60;;;;;;9163894;19;20018;-68
2023/09/19 14:03:37;;;;;;;15.55;2.35;;;20.60;69.50;;;;;;9163547;19;20388;-67
2023/09/19 14:06:45;;;;;;;7.60;1.42;;;20.60;69.60;;;;;;9162156;19;20022;-67
2023/09/19 14:09:53;;;;;;;12.45;1.77;;;20.50;69.50;;;;;;9165759;19;20014;-68
2023/09/19 14:12:59;;;;;;;10.98;2.25;;;20.50;69.60;;;;;;9167384;19;20115;-66
2023/09/19 14:16:10;;;;;;;11.35;2.08;;;20.50;69.60;;;;;;9160684;19;20018;-68
2023/09/19 14:19:16;;;;;;;6.43;1.42;;;20.40;69.50;;;;;;9166964;19;20018;-66
2023/09/19 14:22:23;;;;;;;6.07;1.63;;;20.40;69.60;;;;;;9161405;19;20019;-66
2023/09/19 14:25:30;;;;;;;10.73;1.42;;;20.40;69.60;;;;;;9165376;19;20018;-65
2023/09/19 14:28:38;;;;;;;11.98;1.83;;;20.30;69.60;;;;;;9164271;19;20436;-65
2023/09/19 14:31:47;;;;;;;5.43;1.13;;;20.40;69.70;;;;;;9165699;19;20022;-66
2023/09/19 14:34:54;;;;;;;6.38;1.30;;;20.30;69.50;;;;;;9164372;19;20022;-67
2023/09/19 14:37:59;;;;;;;6.47;1.30;;;20.30;69.60;;;;;;9165662;19;20018;-66
2023/09/19 14:41:08;;;;;;;5.30;1.08;;;20.20;69.60;;;;;;9164515;19;20483;-66
2023/09/19 14:44:16;;;;;;;6.22;1.38;;;20.20;69.60;;;;;;9165392;19;20082;-66
2023/09/19 14:47:27;;;;;;;12.18;2.28;;;20.10;69.60;;;;;;9165462;19;20021;-69
2023/09/19 14:50:34;;;;;;;7.88;1.40;;;20.10;70.10;;;;;;9161570;19;20018;-65
2023/09/19 14:53:42;;;;;;;4.93;1.40;;;20.30;74.10;;;;;;9163580;19;20021;-66
2023/09/19 14:56:53;;;;;;;4.40;0.73;;;20.10;69.70;;;;;;9165563;19;20690;-66
2023/09/19 15:00:01;;;;;;;2.40;0.63;;;20.10;69.70;;;;;;9161998;19;20010;-67
2023/09/19 15:03:11;;;;;;;4.55;1.23;;;20.10;69.80;;;;;;9160871;19;20478;-66
2023/09/19 15:06:20;;;;;;;6.82;1.48;;;20.10;69.80;;;;;;9163330;19;20021;-68
2023/09/19 15:09:26;;;;;;;3.20;1.08;;;20.10;69.80;;;;;;9162422;19;20038;-65
2023/09/19 15:12:35;;;;;;;6.47;1.25;;;20.20;69.90;;;;;;9164460;19;20018;-67
2023/09/19 15:15:42;;;;;;;2.55;1.00;;;20.20;70.00;;;;;;9157991;19;20531;-67
2023/09/19 15:18:52;;;;;;;6.82;1.85;;;20.30;69.90;;;;;;9163340;19;20025;-65
2023/09/19 15:21:58;;;;;;;7.38;1.17;;;20.30;69.70;;;;;;9162993;19;20015;-67
2023/09/19 15:25:06;;;;;;;4.95;0.93;;;20.30;69.70;;;;;;9164974;19;20022;-69
2023/09/19 15:28:11;;;;;;;7.35;1.05;;;20.30;69.70;;;;;;9162027;19;20010;-68
2023/09/19 15:31:19;;;;;;;5.22;0.90;;;20.30;69.70;;;;;;9163416;19;20025;-70
2023/09/19 15:34:28;;;;;;;4.50;1.00;;;20.40;70.30;;;;;;9163889;19;20575;-67
2023/09/19 15:37:36;;;;;;;6.10;0.98;;;20.40;69.60;;;;;;9163872;19;20105;-68
2023/09/19 15:40:49;;;;;;;4.85;1.02;;;20.30;69.50;;;;;;9162471;19;20022;-66
2023/09/19 15:43:56;;;;;;;3.35;1.13;;;20.30;69.50;;;;;;9159215;19;20082;-69
2023/09/19 15:47:02;;;;;;;7.97;2.13;;;20.30;69.60;;;;;;9157758;19;20607;-69
2023/09/19 15:50:13;;;;;;;8.05;1.40;;;20.30;69.60;;;;;;9157291;19;20103;-70
2023/09/19 15:53:19;;;;;;;2.85;1.10;;;20.30;69.60;;;;;;9156958;19;20014;-69
2023/09/19 15:56:27;;;;;;;5.03;1.40;;;20.20;69.40;;;;;;9156464;19;20029;-68
2023/09/19 15:59:32;;;;;;;5.78;1.27;;;20.30;69.60;;;;;;9159837;19;20120;-70
2023/09/19 16:02:39;;;;;;;5.38;1.23;;;20.20;69.40;;;;;;9164821;19;20019;-70
2023/09/19 16:05:48;;;;;;;4.35;1.27;;;20.20;69.40;;;;;;9163591;19;20014;-68
2023/09/19 16:08:58;;;;;;;3.70;1.13;;;20.10;69.20;;;;;;9161756;19;20636;-68
2023/09/19 16:12:04;;;;;;;11.32;1.35;;;20.10;69.30;;;;;;9164107;19;20018;-68
2023/09/19 16:15:14;;;;;;;3.13;1.08;;;20.10;69.40;;;;;;9160442;19;20029;-68
2023/09/19 16:18:19;;;;;;;7.68;1.55;;;20.00;69.40;;;;;;9164132;19;20022;-68
2023/09/19 16:21:31;;;;;;;5.60;1.13;;;20.00;69.40;;;;;;9164047;19;20022;-69